Time;durP1;ratioP1;P1;durP2;ratioP2;P2;SDS_P1;SDS_P2;PMS_P1;PMS_P2;Temp;Humidity;BMP_temperature;BMP_pressure;BME280_temperature;BME280_humidity;BME280_pressure;Samples;Min_cycle;Max_cycle;Signal;HPM_P1;HPM_P2
2022/02/13 00:01:45;;;;;;;14.57;9.50;;;5.10;80.60;;;;;;5075531;28;20571;-69
2022/02/13 00:04:13;;;;;;;10.23;7.70;;;5.10;80.70;;;;;;5075738;28;20460;-69
2022/02/13 00:06:41;;;;;;;14.63;8.77;;;5.00;80.80;;;;;;5075521;28;20534;-69
2022/02/13 00:09:08;;;;;;;13.63;9.30;;;5.00;81.00;;;;;;5076292;28;20425;-69
2022/02/13 00:11:34;;;;;;;13.93;8.00;;;5.00;81.30;;;;;;5075445;28;20441;-69
2022/02/13 00:14:01;;;;;;;17.67;10.13;;;5.00;81.60;;;;;;5074507;28;20935;-69
2022/02/13 00:16:28;;;;;;;20.10;9.00;;;4.90;81.70;;;;;;5075616;28;20437;-69
2022/02/13 00:18:54;;;;;;;12.03;9.07;;;4.90;81.90;;;;;;5075449;28;21051;-69
2022/02/13 00:21:21;;;;;;;10.73;8.67;;;4.90;82.10;;;;;;5075350;28;20459;-69
2022/02/13 00:23:49;;;;;;;15.23;9.47;;;4.80;82.00;;;;;;5075486;28;20456;-69
2022/02/13 00:26:16;;;;;;;12.77;9.50;;;4.80;82.10;;;;;;5075371;28;20487;-70
2022/02/13 00:28:43;;;;;;;15.60;9.20;;;4.80;82.40;;;;;;5075469;28;20456;-69
2022/02/13 00:31:09;;;;;;;13.57;8.53;;;4.80;82.50;;;;;;5075353;28;20467;-69
2022/02/13 00:33:36;;;;;;;11.40;9.60;;;4.80;82.90;;;;;;5075257;28;20444;-69
2022/02/13 00:36:03;;;;;;;14.03;10.13;;;4.80;83.10;;;;;;5075181;28;20471;-69
2022/02/13 00:38:30;;;;;;;12.10;9.17;;;4.70;83.10;;;;;;5074885;28;20962;-69
2022/02/13 00:40:58;;;;;;;12.40;8.70;;;4.70;83.20;;;;;;5075193;28;20445;-69
2022/02/13 00:43:24;;;;;;;13.53;8.90;;;4.70;83.40;;;;;;5075210;28;20485;-69
2022/02/13 00:45:51;;;;;;;11.40;8.10;;;4.70;83.50;;;;;;5075772;28;20468;-70
2022/02/13 00:48:18;;;;;;;15.40;8.87;;;4.70;83.60;;;;;;5075408;28;20441;-69
2022/02/13 00:50:45;;;;;;;14.27;8.70;;;4.70;83.80;;;;;;5075771;28;20448;-69
2022/02/13 00:53:12;;;;;;;15.43;8.27;;;4.70;84.00;;;;;;5075342;28;20425;-70
2022/02/13 00:55:39;;;;;;;11.20;7.83;;;4.70;84.10;;;;;;5075124;28;20465;-70
2022/02/13 00:58:07;;;;;;;11.93;7.30;;;4.70;84.10;;;;;;5074563;28;20970;-70
2022/02/13 01:00:34;;;;;;;14.53;10.10;;;4.70;84.20;;;;;;5074834;28;20444;-69
2022/02/13 01:03:01;;;;;;;13.60;9.07;;;4.60;84.30;;;;;;5074706;28;20484;-69
2022/02/13 01:05:27;;;;;;;15.70;8.80;;;4.60;84.40;;;;;;5074265;28;20464;-69
2022/02/13 01:07:54;;;;;;;10.90;8.63;;;4.60;84.60;;;;;;5074092;28;20846;-70
2022/02/13 01:10:21;;;;;;;16.70;9.80;;;4.60;84.90;;;;;;5074546;28;20449;-70
2022/02/13 01:12:48;;;;;;;13.57;8.93;;;4.60;85.20;;;;;;5074151;28;20445;-70
2022/02/13 01:15:16;;;;;;;16.03;9.03;;;4.60;85.10;;;;;;5074331;28;20483;-69
2022/02/13 01:17:43;;;;;;;16.43;9.70;;;4.60;85.00;;;;;;5074388;28;20449;-69
2022/02/13 01:20:11;;;;;;;17.20;9.23;;;4.60;85.10;;;;;;5074055;28;21004;-69
2022/02/13 01:22:38;;;;;;;14.77;8.97;;;4.50;85.40;;;;;;5074161;28;20472;-69
2022/02/13 01:25:05;;;;;;;16.93;10.33;;;4.50;85.70;;;;;;5073303;28;20479;-69
2022/02/13 01:27:32;;;;;;;15.70;8.73;;;4.50;85.80;;;;;;5074126;28;20449;-69
2022/02/13 01:29:59;;;;;;;12.23;8.87;;;4.50;85.90;;;;;;5073799;28;20444;-69
2022/02/13 01:32:27;;;;;;;17.10;10.20;;;4.50;86.10;;;;;;5074182;28;20441;-69
2022/02/13 01:34:54;;;;;;;15.27;10.80;;;4.50;86.00;;;;;;5073988;28;20464;-69
2022/02/13 01:37:20;;;;;;;13.20;9.40;;;4.40;85.80;;;;;;5073739;28;20962;-69
2022/02/13 01:39:47;;;;;;;17.47;9.80;;;4.40;85.80;;;;;;5073700;28;20451;-69
2022/02/13 01:42:14;;;;;;;17.60;10.00;;;4.40;85.80;;;;;;5073824;28;20563;-69
2022/02/13 01:44:41;;;;;;;16.50;8.70;;;4.40;85.80;;;;;;5074429;28;20473;-69
2022/02/13 01:47:08;;;;;;;11.97;8.90;;;4.40;85.80;;;;;;5073853;28;20502;-69
2022/02/13 01:49:37;;;;;;;10.50;7.00;;;4.40;85.90;;;;;;5073785;28;20452;-69
2022/02/13 01:52:05;;;;;;;14.23;7.97;;;4.40;86.10;;;;;;5073453;28;20927;-70
2022/02/13 01:54:33;;;;;;;11.00;7.37;;;4.30;86.10;;;;;;5073620;28;20467;-69
2022/02/13 01:57:00;;;;;;;10.00;8.13;;;4.30;86.50;;;;;;5073661;28;20452;-69
2022/02/13 01:59:26;;;;;;;13.50;8.03;;;4.30;86.60;;;;;;5073605;28;20445;-69
2022/02/13 02:01:53;;;;;;;10.20;8.10;;;4.30;86.80;;;;;;5073535;28;20448;-70
2022/02/13 02:04:20;;;;;;;14.70;8.70;;;4.30;87.00;;;;;;5073175;28;20955;-69
2022/02/13 02:06:48;;;;;;;10.53;8.47;;;4.30;87.10;;;;;;5073365;28;20445;-69
2022/02/13 02:09:15;;;;;;;17.27;8.80;;;4.30;87.10;;;;;;5073519;28;20441;-69
2022/02/13 02:11:42;;;;;;;12.83;9.50;;;4.30;86.80;;;;;;5073497;28;20448;-69
2022/02/13 02:14:08;;;;;;;12.93;8.80;;;4.30;86.70;;;;;;5073441;28;20558;-69
2022/02/13 02:16:36;;;;;;;12.83;7.67;;;4.30;86.30;;;;;;5073498;28;20445;-69
2022/02/13 02:19:05;;;;;;;11.23;8.50;;;4.20;86.10;;;;;;5074101;28;20544;-69
2022/02/13 02:21:32;;;;;;;12.40;8.53;;;4.20;86.40;;;;;;5073454;28;20429;-69
2022/02/13 02:24:00;;;;;;;14.40;9.10;;;4.10;86.40;;;;;;5073322;28;20484;-70
2022/02/13 02:26:27;;;;;;;12.53;9.40;;;4.10;86.20;;;;;;5073013;28;20448;-69
2022/02/13 02:28:54;;;;;;;10.63;9.20;;;4.10;86.10;;;;;;5073376;28;20451;-69
2022/02/13 02:31:21;;;;;;;11.70;7.90;;;4.10;86.40;;;;;;5073078;28;20433;-70
2022/02/13 02:33:47;;;;;;;16.00;9.10;;;4.00;86.30;;;;;;5072947;28;20951;-70
2022/02/13 02:36:15;;;;;;;11.87;8.93;;;4.00;86.30;;;;;;5073404;28;20468;-69
2022/02/13 02:38:42;;;;;;;13.87;9.50;;;4.00;86.50;;;;;;5077372;28;20482;-69
2022/02/13 02:41:11;;;;;;;12.90;7.53;;;3.90;86.30;;;;;;5077067;28;20815;-69
2022/02/13 02:43:37;;;;;;;9.83;8.20;;;3.90;86.00;;;;;;5076978;28;20504;-69
2022/02/13 02:46:04;;;;;;;13.77;9.03;;;3.90;86.20;;;;;;5077191;28;20464;-69
2022/02/13 02:48:33;;;;;;;14.70;8.60;;;3.90;86.40;;;;;;5077143;28;20452;-70
2022/02/13 02:51:00;;;;;;;14.17;9.40;;;3.90;86.40;;;;;;5077153;28;20448;-70
2022/02/13 02:53:26;;;;;;;16.90;9.30;;;3.90;86.40;;;;;;5076790;28;20437;-70
2022/02/13 02:55:54;;;;;;;13.60;7.97;;;3.80;86.40;;;;;;5076861;28;20483;-70
2022/02/13 02:58:22;;;;;;;14.90;9.47;;;3.80;86.50;;;;;;5076933;28;20453;-69
2022/02/13 03:00:50;;;;;;;10.50;8.03;;;3.80;86.70;;;;;;5076934;28;20531;-70
2022/02/13 03:03:17;;;;;;;12.60;8.73;;;3.80;86.70;;;;;;5076831;28;20483;-70
2022/02/13 03:05:44;;;;;;;12.27;8.07;;;3.80;86.90;;;;;;5076845;28;20472;-70
2022/02/13 03:08:10;;;;;;;15.80;8.97;;;3.80;87.20;;;;;;5076437;28;20467;-70
2022/02/13 03:10:37;;;;;;;12.67;7.47;;;3.80;87.60;;;;;;5076771;28;20471;-70
2022/02/13 03:13:04;;;;;;;14.70;8.93;;;3.70;87.80;;;;;;5076731;28;20468;-70
2022/02/13 03:15:32;;;;;;;11.50;9.13;;;3.70;88.20;;;;;;5076429;28;20495;-69
2022/02/13 03:17:59;;;;;;;14.90;9.80;;;3.70;88.50;;;;;;5076295;28;20452;-70
2022/02/13 03:20:26;;;;;;;13.73;10.20;;;3.70;88.80;;;;;;5076448;28;20498;-69
2022/02/13 03:22:52;;;;;;;15.53;10.70;;;3.70;89.00;;;;;;5076426;28;20484;-69
2022/02/13 03:25:19;;;;;;;13.77;10.63;;;3.70;89.30;;;;;;5076408;28;20473;-69
2022/02/13 03:27:46;;;;;;;14.47;10.60;;;3.70;89.50;;;;;;5076214;28;20448;-69
2022/02/13 03:30:13;;;;;;;11.20;8.13;;;3.60;89.40;;;;;;5076350;28;20448;-70
2022/02/13 03:32:41;;;;;;;12.53;7.60;;;3.70;89.50;;;;;;5076041;28;20944;-70
2022/02/13 03:35:09;;;;;;;10.50;8.10;;;3.70;89.40;;;;;;5076187;28;20461;-69
2022/02/13 03:37:37;;;;;;;9.63;7.27;;;3.70;89.10;;;;;;5076190;28;20475;-69
2022/02/13 03:40:05;;;;;;;14.00;8.47;;;3.70;89.00;;;;;;5075819;28;20459;-70
2022/02/13 03:42:32;;;;;;;8.20;6.50;;;3.70;88.80;;;;;;5075863;28;20800;-70
2022/02/13 03:44:59;;;;;;;11.03;5.83;;;3.60;88.50;;;;;;5075795;28;20590;-70
2022/02/13 03:47:26;;;;;;;9.60;5.80;;;3.60;88.40;;;;;;5075868;28;20445;-70
2022/02/13 03:49:54;;;;;;;7.97;5.90;;;3.60;88.50;;;;;;5075086;28;20458;-70
2022/02/13 03:52:21;;;;;;;5.20;4.37;;;3.60;88.40;;;;;;5075946;28;20441;-70
2022/02/13 03:54:48;;;;;;;6.13;4.60;;;3.50;88.30;;;;;;5075924;28;20468;-69
2022/02/13 03:57:15;;;;;;;7.67;5.20;;;3.60;88.00;;;;;;5075941;28;20536;-69
2022/02/13 03:59:42;;;;;;;6.00;4.63;;;3.50;88.20;;;;;;5076003;28;20493;-69
2022/02/13 04:02:09;;;;;;;6.00;5.00;;;3.50;88.10;;;;;;5075896;28;20455;-69
2022/02/13 04:04:36;;;;;;;6.87;5.40;;;3.50;88.30;;;;;;5075370;28;20491;-69
2022/02/13 04:07:04;;;;;;;6.90;5.80;;;3.50;88.40;;;;;;5075397;28;20567;-69
2022/02/13 04:09:32;;;;;;;7.83;5.17;;;3.50;88.50;;;;;;5075696;28;20445;-70
2022/02/13 04:11:58;;;;;;;6.53;4.57;;;3.50;89.40;;;;;;5075662;28;20452;-70
2022/02/13 04:14:25;;;;;;;6.93;4.97;;;3.50;88.90;;;;;;5075571;28;20471;-69
2022/02/13 04:16:52;;;;;;;12.03;5.57;;;3.50;89.00;;;;;;5075633;28;20444;-69
2022/02/13 04:19:19;;;;;;;10.03;5.90;;;3.50;89.00;;;;;;5075605;28;20445;-70
2022/02/13 04:21:45;;;;;;;6.50;5.30;;;3.50;88.80;;;;;;5075494;28;20449;-70
2022/02/13 04:24:13;;;;;;;9.03;5.60;;;3.60;88.70;;;;;;5075224;28;20477;-70
2022/02/13 04:26:40;;;;;;;7.60;4.87;;;3.60;88.60;;;;;;5075822;28;20449;-70
2022/02/13 04:29:07;;;;;;;6.07;5.00;;;3.50;89.30;;;;;;5076064;28;20448;-70
2022/02/13 04:31:34;;;;;;;7.50;5.47;;;3.50;88.70;;;;;;5075470;28;20449;-70
2022/02/13 04:34:01;;;;;;;9.17;4.80;;;3.50;88.70;;;;;;5075822;28;20421;-71
2022/02/13 04:36:28;;;;;;;7.67;5.30;;;3.50;88.70;;;;;;5075138;28;20829;-70
2022/02/13 04:38:54;;;;;;;10.83;5.10;;;3.40;88.60;;;;;;5075027;28;20445;-70
2022/02/13 04:41:22;;;;;;;8.97;6.00;;;3.40;88.70;;;;;;5075142;28;20449;-70
2022/02/13 04:43:49;;;;;;;6.27;4.80;;;3.50;89.00;;;;;;5074969;28;20472;-70
2022/02/13 04:46:16;;;;;;;7.80;5.13;;;3.50;88.90;;;;;;5074892;28;20482;-69
2022/02/13 04:48:42;;;;;;;10.70;6.20;;;3.50;88.70;;;;;;5074752;28;20455;-69
2022/02/13 04:51:09;;;;;;;6.53;4.37;;;3.50;88.60;;;;;;5074648;28;20453;-69
2022/02/13 04:53:36;;;;;;;7.23;5.00;;;3.40;88.60;;;;;;5074327;28;20456;-69
2022/02/13 04:56:04;;;;;;;7.17;5.00;;;3.50;88.70;;;;;;5074569;28;20585;-69
2022/02/13 04:58:32;;;;;;;8.17;4.97;;;3.50;89.10;;;;;;5074805;28;20433;-69
2022/02/13 05:00:59;;;;;;;5.20;4.67;;;3.40;89.10;;;;;;5074155;28;20947;-69
2022/02/13 05:03:26;;;;;;;6.47;5.17;;;3.40;88.90;;;;;;5074582;28;20481;-69
2022/02/13 05:05:54;;;;;;;10.70;4.80;;;3.40;89.80;;;;;;5074070;28;20468;-69
2022/02/13 05:08:21;;;;;;;6.13;4.70;;;3.30;89.80;;;;;;5074156;28;20828;-69
2022/02/13 05:10:48;;;;;;;11.47;5.00;;;3.30;90.10;;;;;;5074495;28;20445;-69
2022/02/13 05:13:15;;;;;;;6.13;5.03;;;3.30;90.10;;;;;;5074440;28;20908;-69
2022/02/13 05:15:43;;;;;;;10.83;6.00;;;3.40;90.00;;;;;;5074316;28;20464;-69
2022/02/13 05:18:10;;;;;;;9.50;5.90;;;3.30;89.70;;;;;;5074274;28;20543;-69
2022/02/13 05:20:37;;;;;;;6.50;5.00;;;3.30;90.00;;;;;;5074428;28;20783;-70
2022/02/13 05:23:03;;;;;;;5.30;4.80;;;3.30;90.20;;;;;;5073856;28;20940;-70
2022/02/13 05:25:30;;;;;;;5.30;4.47;;;3.30;90.20;;;;;;5074089;28;20469;-69
2022/02/13 05:27:57;;;;;;;8.20;4.90;;;3.20;90.10;;;;;;5074113;28;20455;-70
2022/02/13 05:30:23;;;;;;;6.53;4.73;;;3.20;90.20;;;;;;5074000;28;20445;-70
2022/02/13 05:32:51;;;;;;;8.00;5.03;;;3.20;90.40;;;;;;5074112;28;20471;-70
2022/02/13 05:35:18;;;;;;;10.83;5.73;;;3.20;90.50;;;;;;5073990;28;20461;-69
2022/02/13 05:37:48;;;;;;;7.23;4.83;;;3.20;90.40;;;;;;5073940;28;20444;-69
2022/02/13 05:40:14;;;;;;;7.40;4.67;;;3.20;90.30;;;;;;5073929;28;20456;-69
2022/02/13 05:42:41;;;;;;;11.40;5.10;;;3.20;90.40;;;;;;5073798;28;20449;-70
2022/02/13 05:45:09;;;;;;;5.83;5.13;;;3.20;90.50;;;;;;5073435;28;20995;-69
2022/02/13 05:47:37;;;;;;;7.20;5.13;;;3.20;90.40;;;;;;5073851;28;20958;-69
2022/02/13 05:50:06;;;;;;;6.43;4.70;;;3.20;90.40;;;;;;5073478;28;20776;-69
2022/02/13 05:52:32;;;;;;;6.40;4.93;;;3.20;90.40;;;;;;5073416;28;20931;-70
2022/02/13 05:54:59;;;;;;;6.27;5.27;;;3.20;90.40;;;;;;5073678;28;20471;-69
2022/02/13 05:57:26;;;;;;;8.20;4.80;;;3.20;90.30;;;;;;5073868;28;20452;-69
2022/02/13 05:59:52;;;;;;;8.17;5.50;;;3.20;90.20;;;;;;5073665;28;20820;-69
2022/02/13 06:02:19;;;;;;;5.97;5.23;;;3.20;90.00;;;;;;5073628;28;20452;-69
2022/02/13 06:04:46;;;;;;;11.33;5.33;;;3.10;89.80;;;;;;5073508;28;20507;-69
2022/02/13 06:07:15;;;;;;;9.03;6.13;;;3.10;89.60;;;;;;5073474;28;20457;-69
2022/02/13 06:09:42;;;;;;;8.30;5.30;;;3.10;90.10;;;;;;5073833;28;20451;-69
2022/02/13 06:12:10;;;;;;;9.90;5.70;;;3.00;90.20;;;;;;5072602;28;20444;-69
2022/02/13 06:14:36;;;;;;;10.30;5.50;;;3.00;90.50;;;;;;5073116;28;20461;-69
2022/02/13 06:17:04;;;;;;;7.90;5.60;;;2.90;90.60;;;;;;5073341;28;20456;-69
2022/02/13 06:19:30;;;;;;;7.20;5.60;;;2.90;90.30;;;;;;5073343;28;20444;-70
2022/02/13 06:21:57;;;;;;;7.07;5.17;;;2.90;90.40;;;;;;5073325;28;20444;-70
2022/02/13 06:24:25;;;;;;;9.80;5.30;;;2.90;90.70;;;;;;5072928;28;20847;-70
2022/02/13 06:26:52;;;;;;;6.33;5.20;;;2.90;90.10;;;;;;5073066;28;20449;-70
2022/02/13 06:29:18;;;;;;;10.30;6.30;;;2.90;90.30;;;;;;5073265;28;20448;-70
2022/02/13 06:31:45;;;;;;;6.70;5.17;;;2.90;90.60;;;;;;5073217;28;20452;-70
2022/02/13 06:34:12;;;;;;;6.70;4.90;;;2.90;90.70;;;;;;5073267;28;20473;-70
2022/02/13 06:36:39;;;;;;;6.27;5.23;;;2.90;90.70;;;;;;5073284;28;20467;-70
2022/02/13 06:39:06;;;;;;;5.70;4.70;;;3.00;90.80;;;;;;5073155;28;20445;-70
2022/02/13 06:41:34;;;;;;;6.10;4.50;;;3.00;90.70;;;;;;5072806;28;20514;-70
2022/02/13 06:44:01;;;;;;;8.27;5.30;;;3.10;90.60;;;;;;5073138;28;20480;-70
2022/02/13 06:46:27;;;;;;;7.27;5.73;;;3.10;90.20;;;;;;5073234;28;20473;-69
2022/02/13 06:48:54;;;;;;;6.57;4.80;;;3.10;90.10;;;;;;5073148;28;20448;-69
2022/02/13 06:51:21;;;;;;;6.27;5.10;;;3.10;90.00;;;;;;5073926;28;20885;-69
2022/02/13 06:53:48;;;;;;;6.60;4.70;;;3.10;90.00;;;;;;5073176;28;20444;-69
2022/02/13 06:56:14;;;;;;;6.70;4.83;;;3.10;90.00;;;;;;5073062;28;20457;-69
2022/02/13 06:58:43;;;;;;;8.70;5.57;;;3.10;90.00;;;;;;5073058;28;20456;-69
2022/02/13 07:01:10;;;;;;;8.33;5.50;;;3.20;90.10;;;;;;5072946;28;20440;-69
2022/02/13 07:03:37;;;;;;;6.80;5.13;;;3.20;90.10;;;;;;5072619;28;20936;-70
2022/02/13 07:06:04;;;;;;;9.63;5.90;;;3.20;90.20;;;;;;5072628;28;20460;-70
2022/02/13 07:08:31;;;;;;;7.70;5.50;;;3.20;90.20;;;;;;5072453;28;20463;-70
2022/02/13 07:10:58;;;;;;;8.20;6.30;;;3.30;90.30;;;;;;5072802;28;20452;-70
2022/02/13 07:13:24;;;;;;;9.50;6.97;;;3.30;90.30;;;;;;5072404;28;20440;-70
2022/02/13 07:15:53;;;;;;;9.70;5.70;;;3.40;90.20;;;;;;5072804;28;20464;-70
2022/02/13 07:18:19;;;;;;;7.53;6.03;;;3.40;90.10;;;;;;5072786;28;20441;-70
2022/02/13 07:20:46;;;;;;;8.53;6.23;;;3.40;90.10;;;;;;5072435;28;20816;-70
2022/02/13 07:23:13;;;;;;;7.50;5.40;;;3.50;90.10;;;;;;5074475;28;20916;-70
2022/02/13 07:25:40;;;;;;;9.57;7.07;;;3.50;89.70;;;;;;5076070;28;20492;-69
2022/02/13 07:30:48;;;;;;;12.90;7.90;;;3.50;89.70;;;;;;5075883;28;20460;-70
2022/02/13 07:33:16;;;;;;;9.63;7.20;;;3.60;89.80;;;;;;5076448;28;20437;-70
2022/02/13 07:35:43;;;;;;;10.30;7.07;;;3.60;89.50;;;;;;5076358;28;20472;-69
2022/02/13 07:38:10;;;;;;;8.47;6.80;;;3.60;89.20;;;;;;5077492;28;20443;-70
2022/02/13 07:40:36;;;;;;;11.83;7.03;;;3.60;89.20;;;;;;5076592;28;20444;-70
2022/02/13 07:43:03;;;;;;;8.00;6.10;;;3.60;89.00;;;;;;5077027;28;20436;-70
2022/02/13 07:45:30;;;;;;;13.70;6.00;;;3.60;89.00;;;;;;5076114;28;21065;-70
2022/02/13 07:47:56;;;;;;;7.40;5.70;;;3.60;89.00;;;;;;5076871;28;20440;-70
2022/02/13 07:50:25;;;;;;;8.17;5.90;;;3.60;88.50;;;;;;5076765;28;20444;-70
2022/02/13 07:52:51;;;;;;;11.20;6.30;;;3.60;88.60;;;;;;5076813;28;20440;-70
2022/02/13 07:55:18;;;;;;;8.30;6.10;;;3.60;89.10;;;;;;5076540;28;20465;-69
2022/02/13 07:57:45;;;;;;;8.90;6.10;;;3.60;89.50;;;;;;5076422;28;20437;-70
2022/02/13 08:00:12;;;;;;;8.67;6.20;;;3.70;89.80;;;;;;5076734;28;20440;-69
2022/02/13 08:02:40;;;;;;;6.93;5.93;;;3.80;90.00;;;;;;5076720;28;20899;-69
2022/02/13 08:05:07;;;;;;;11.03;5.70;;;3.90;90.00;;;;;;5078641;28;20487;-70
2022/02/13 08:07:35;;;;;;;7.50;6.57;;;3.90;90.00;;;;;;5076495;28;20463;-70
2022/02/13 08:10:02;;;;;;;8.87;6.47;;;4.00;90.00;;;;;;5077002;28;20798;-69
2022/02/13 08:12:29;;;;;;;12.67;6.37;;;4.10;90.00;;;;;;5076620;28;20451;-69
2022/02/13 08:14:56;;;;;;;7.03;5.60;;;4.10;90.10;;;;;;5076157;28;20468;-68
2022/02/13 08:17:23;;;;;;;6.73;5.67;;;4.20;90.10;;;;;;5075909;28;20440;-68
2022/02/13 08:19:50;;;;;;;6.33;5.73;;;4.30;90.20;;;;;;5075517;28;20815;-68
2022/02/13 08:22:16;;;;;;;9.60;6.10;;;4.30;90.10;;;;;;5075389;28;20448;-68
2022/02/13 08:24:46;;;;;;;10.97;6.33;;;4.40;90.20;;;;;;5075599;28;20493;-68
2022/02/13 08:27:13;;;;;;;7.50;6.40;;;4.40;90.10;;;;;;5075610;28;20879;-69
2022/02/13 08:29:40;;;;;;;11.40;6.30;;;4.50;89.90;;;;;;5075585;28;20457;-68
2022/02/13 08:32:07;;;;;;;8.97;6.70;;;4.50;90.20;;;;;;5075475;28;20452;-68
2022/02/13 08:34:34;;;;;;;8.37;7.30;;;4.60;90.10;;;;;;5074740;28;20448;-68
2022/02/13 08:37:01;;;;;;;8.23;6.00;;;4.60;89.80;;;;;;5075053;28;20778;-69
2022/02/13 08:39:28;;;;;;;8.60;6.20;;;4.70;89.70;;;;;;5075314;28;20460;-69
2022/02/13 08:41:56;;;;;;;5.67;4.80;;;4.80;89.70;;;;;;5074849;28;20448;-69
2022/02/13 08:44:22;;;;;;;7.23;6.53;;;4.80;89.70;;;;;;5074954;28;20475;-68
2022/02/13 08:46:49;;;;;;;11.40;7.17;;;4.90;89.70;;;;;;5075060;28;20448;-68
2022/02/13 08:49:16;;;;;;;9.87;6.67;;;4.90;89.50;;;;;;5074818;28;20951;-69
2022/02/13 08:51:44;;;;;;;9.30;6.80;;;5.00;89.50;;;;;;5074712;28;20457;-69
2022/02/13 08:54:11;;;;;;;10.23;7.03;;;5.00;89.10;;;;;;5074820;28;20448;-68
2022/02/13 08:56:37;;;;;;;9.03;5.90;;;5.10;88.90;;;;;;5074856;28;20445;-68
2022/02/13 08:59:05;;;;;;;9.30;6.37;;;5.20;88.70;;;;;;5074788;28;20444;-68
2022/02/13 09:01:32;;;;;;;9.30;6.83;;;5.20;88.60;;;;;;5074788;28;20441;-69
2022/02/13 09:03:59;;;;;;;9.80;7.60;;;5.30;88.30;;;;;;5074803;28;20452;-68
2022/02/13 09:06:26;;;;;;;10.07;7.17;;;5.40;87.80;;;;;;5074381;28;20487;-68
2022/02/13 09:08:52;;;;;;;9.70;7.10;;;5.40;87.50;;;;;;5074609;28;20444;-68
2022/02/13 09:11:19;;;;;;;8.40;5.93;;;5.50;87.60;;;;;;5074536;28;20441;-70
2022/02/13 09:13:46;;;;;;;9.47;6.73;;;5.50;87.50;;;;;;5074398;28;20449;-70
2022/02/13 09:16:14;;;;;;;8.20;6.43;;;5.60;87.50;;;;;;5074248;28;20465;-69
2022/02/13 09:18:42;;;;;;;10.63;6.67;;;5.60;87.30;;;;;;5074460;28;20498;-69
2022/02/13 09:21:09;;;;;;;10.83;7.47;;;5.70;87.30;;;;;;5074486;28;20837;-69
2022/02/13 09:23:36;;;;;;;12.17;8.03;;;5.70;87.00;;;;;;5074498;28;20445;-69
2022/02/13 09:26:03;;;;;;;9.70;7.77;;;5.80;85.90;;;;;;5074129;28;20515;-69
2022/02/13 09:28:30;;;;;;;9.50;7.13;;;5.80;83.90;;;;;;5074231;28;20449;-69
2022/02/13 09:30:57;;;;;;;8.87;6.50;;;5.80;83.60;;;;;;5074271;28;20445;-69
2022/02/13 09:33:25;;;;;;;9.83;7.93;;;5.80;83.80;;;;;;5074140;28;20452;-69
2022/02/13 09:35:52;;;;;;;13.23;8.03;;;5.80;83.80;;;;;;5074039;28;20837;-69
2022/02/13 09:38:18;;;;;;;8.67;6.70;;;5.90;83.30;;;;;;5074034;28;20452;-69
2022/02/13 09:40:47;;;;;;;11.20;7.20;;;5.90;83.30;;;;;;5074003;28;20445;-69
2022/02/13 09:43:15;;;;;;;12.73;6.83;;;5.90;82.50;;;;;;5073737;28;20857;-69
2022/02/13 09:45:44;;;;;;;7.83;6.63;;;6.00;82.80;;;;;;5073445;28;20488;-69
2022/02/13 09:48:13;;;;;;;10.10;6.90;;;6.00;82.20;;;;;;5073577;28;20445;-69
2022/02/13 09:50:41;;;;;;;13.33;7.90;;;6.10;82.20;;;;;;5073857;28;20490;-69
2022/02/13 09:53:08;;;;;;;8.93;6.70;;;6.20;82.80;;;;;;5073475;28;20852;-69
2022/02/13 09:55:35;;;;;;;10.63;6.40;;;6.30;82.90;;;;;;5073751;28;20460;-69
2022/02/13 09:58:04;;;;;;;9.33;6.03;;;6.50;82.90;;;;;;5073465;28;20455;-69
2022/02/13 10:00:50;;;;;;;8.27;6.13;;;6.60;82.20;;;;;;5073744;28;20487;-69
2022/02/13 10:03:21;;;;;;;10.03;6.70;;;6.70;82.00;;;;;;5073670;28;20456;-69
2022/02/13 10:05:50;;;;;;;9.70;6.60;;;6.90;79.90;;;;;;5073570;28;20485;-69
2022/02/13 10:08:31;;;;;;;9.00;5.67;;;7.00;78.90;;;;;;5073176;28;20456;-70
2022/02/13 10:11:10;;;;;;;7.57;5.80;;;7.10;76.80;;;;;;5073629;28;20471;-69
2022/02/13 10:13:49;;;;;;;6.40;5.77;;;7.20;74.90;;;;;;5073572;28;20437;-69
2022/02/13 10:16:18;;;;;;;8.07;6.13;;;7.30;74.80;;;;;;5073285;28;20463;-69
2022/02/13 10:18:46;;;;;;;10.00;6.27;;;7.40;75.00;;;;;;5073422;28;20440;-69
2022/02/13 10:21:40;;;;;;;8.93;5.40;;;7.50;74.40;;;;;;5074085;28;20445;-70
2022/02/13 10:24:22;;;;;;;11.73;4.80;;;7.60;72.30;;;;;;5073540;28;20437;-69
2022/02/13 10:26:50;;;;;;;10.47;5.50;;;7.70;71.80;;;;;;5073064;28;20979;-69
2022/02/13 10:29:19;;;;;;;6.00;5.20;;;7.80;71.30;;;;;;5073416;28;20444;-69
2022/02/13 10:31:46;;;;;;;5.67;5.00;;;7.90;70.60;;;;;;5073427;28;20913;-69
2022/02/13 10:34:15;;;;;;;7.73;5.00;;;8.00;69.60;;;;;;5073233;28;20825;-69
2022/02/13 10:36:45;;;;;;;11.10;5.53;;;8.10;70.30;;;;;;5073296;28;20448;-69
2022/02/13 10:39:20;;;;;;;7.50;5.13;;;8.30;69.70;;;;;;5073419;28;20432;-69
2022/02/13 10:41:48;;;;;;;8.50;4.90;;;8.50;69.00;;;;;;5072940;28;20451;-69
2022/02/13 10:44:16;;;;;;;10.20;5.03;;;8.60;67.90;;;;;;5073091;28;20449;-69
2022/02/13 10:46:44;;;;;;;6.33;4.20;;;8.80;67.00;;;;;;5072978;28;20833;-69
2022/02/13 10:49:13;;;;;;;5.30;4.57;;;8.90;64.30;;;;;;5073263;28;20444;-69
2022/02/13 10:51:40;;;;;;;5.50;4.20;;;9.20;63.00;;;;;;5073217;28;20444;-69
2022/02/13 10:54:08;;;;;;;7.30;4.53;;;9.40;60.20;;;;;;5073052;28;20451;-68
2022/02/13 10:56:37;;;;;;;4.40;3.83;;;9.60;58.60;;;;;;5072964;28;20824;-69
2022/02/13 10:59:04;;;;;;;6.97;4.50;;;9.90;57.60;;;;;;5076327;28;20460;-69
2022/02/13 11:01:32;;;;;;;5.90;4.90;;;10.10;56.10;;;;;;5077490;28;20439;-69
2022/02/13 11:04:03;;;;;;;3.87;3.47;;;10.20;55.30;;;;;;5077009;28;20806;-68
2022/02/13 11:06:32;;;;;;;7.23;4.77;;;10.30;55.90;;;;;;5076662;28;20533;-68
2022/02/13 11:09:02;;;;;;;6.90;4.00;;;10.30;55.10;;;;;;5077535;28;20433;-69
2022/02/13 11:11:32;;;;;;;5.87;4.40;;;10.40;54.50;;;;;;5076931;28;20802;-69
2022/02/13 11:13:59;;;;;;;5.37;3.60;;;10.50;54.90;;;;;;5076924;28;20445;-69
2022/02/13 11:16:31;;;;;;;6.10;3.90;;;10.60;54.70;;;;;;5076713;28;20464;-69
2022/02/13 11:19:01;;;;;;;4.30;3.87;;;10.80;54.30;;;;;;5076738;28;20428;-69
2022/02/13 11:21:30;;;;;;;5.82;4.05;;;11.10;53.40;;;;;;5076630;28;20434;-70
2022/02/13 11:23:58;;;;;;;6.90;4.07;;;11.30;52.80;;;;;;5075680;28;20438;-69
2022/02/13 11:26:40;;;;;;;5.47;4.63;;;11.60;51.60;;;;;;5076206;28;20316;-69
2022/02/13 11:29:08;;;;;;;6.07;3.80;;;11.90;50.90;;;;;;5076279;28;20427;-69
2022/02/13 11:31:40;;;;;;;7.23;3.13;;;12.20;49.80;;;;;;5076548;28;20507;-69
2022/02/13 11:34:11;;;;;;;7.00;3.43;;;12.50;48.80;;;;;;5076535;28;20429;-70
2022/02/13 11:36:47;;;;;;;5.13;3.47;;;12.80;47.40;;;;;;5076521;28;20436;-70
2022/02/13 11:39:35;;;;;;;13.60;5.57;;;13.20;47.10;;;;;;5076513;28;20475;-70
2022/02/13 11:42:06;;;;;;;5.00;4.00;;;13.40;46.20;;;;;;5076428;28;20448;-70
2022/02/13 11:44:38;;;;;;;5.63;3.90;;;13.50;46.10;;;;;;5076363;28;20465;-71
2022/02/13 11:47:07;;;;;;;4.40;3.23;;;13.60;45.80;;;;;;5076435;28;20500;-70
2022/02/13 11:50:21;;;;;;;6.57;3.10;;;13.80;46.50;;;;;;5076132;28;20440;-70
2022/02/13 11:53:05;;;;;;;3.20;2.87;;;13.90;44.80;;;;;;5076269;28;20433;-70
2022/02/13 11:55:37;;;;;;;4.20;3.10;;;14.30;44.00;;;;;;5076020;28;20871;-71
2022/02/13 11:58:12;;;;;;;6.15;3.45;;;14.50;42.80;;;;;;5075093;28;20488;-72
2022/02/13 12:00:46;;;;;;;4.57;3.50;;;14.60;43.10;;;;;;5075855;28;20659;-71
2022/02/13 12:03:18;;;;;;;5.13;3.60;;;14.50;42.60;;;;;;5075815;28;20500;-71
2022/02/13 12:05:51;;;;;;;3.83;3.43;;;14.20;42.00;;;;;;5075889;28;20488;-71
2022/02/13 12:08:23;;;;;;;3.93;2.87;;;13.90;42.30;;;;;;5075432;28;20464;-71
2022/02/13 12:10:50;;;;;;;4.47;3.80;;;13.90;42.90;;;;;;5074925;28;20464;-71
2022/02/13 12:13:20;;;;;;;3.27;2.97;;;14.00;43.30;;;;;;5075857;28;20441;-71
2022/02/13 12:15:52;;;;;;;4.60;3.00;;;14.10;41.70;;;;;;5075695;28;20465;-71
2022/02/13 12:18:19;;;;;;;4.30;3.20;;;14.40;41.90;;;;;;5075698;28;20444;-69
2022/02/13 12:20:46;;;;;;;4.13;2.83;;;14.80;40.30;;;;;;5075657;28;20825;-69
2022/02/13 12:23:16;;;;;;;6.93;3.60;;;15.00;40.00;;;;;;5075682;28;20478;-68
2022/02/13 12:25:45;;;;;;;3.70;2.77;;;15.30;39.20;;;;;;5075437;28;20488;-69
2022/02/13 12:28:14;;;;;;;3.50;2.90;;;15.50;38.90;;;;;;5075243;28;20919;-69
2022/02/13 12:30:49;;;;;;;5.33;3.60;;;15.60;38.30;;;;;;5075472;28;20452;-69
2022/02/13 12:33:18;;;;;;;5.10;4.00;;;15.60;38.30;;;;;;5076254;28;20432;-69
2022/02/13 12:35:46;;;;;;;7.50;4.63;;;15.60;38.10;;;;;;5075206;28;20500;-69
2022/02/13 12:38:13;;;;;;;7.03;5.17;;;15.80;38.60;;;;;;5075267;28;20453;-70
2022/02/13 12:40:44;;;;;;;5.40;3.90;;;16.20;38.40;;;;;;5075257;28;20452;-71
2022/02/13 12:43:16;;;;;;;4.33;3.07;;;16.40;38.20;;;;;;5075440;28;20448;-71
2022/02/13 12:45:44;;;;;;;3.10;2.80;;;16.80;37.70;;;;;;5075245;28;20511;-70
2022/02/13 12:48:15;;;;;;;4.50;3.30;;;17.10;37.10;;;;;;5074721;28;20455;-70
2022/02/13 12:50:45;;;;;;;3.77;2.67;;;17.30;36.00;;;;;;5074947;28;20437;-70
2022/02/13 12:53:14;;;;;;;3.30;3.00;;;17.40;36.60;;;;;;5074679;28;20951;-70
2022/02/13 12:55:42;;;;;;;4.00;3.20;;;17.50;36.50;;;;;;5074818;28;20831;-70
2022/02/13 12:58:10;;;;;;;4.00;3.00;;;17.80;36.20;;;;;;5074581;28;20424;-70